Tiempo atmosférico en la estación meteorológica de Cartaya, Huelva (15 m.)



Fecha
DESCASC
Temp. máxima en grados centígrados (hora)
DESCASC
Temp. mínima en grados centígrados (hora)
DESCASC
Temp. media en grados centígrados
DESCASC
Racha de viento máxima en m/sg (hora)
DESCASC
Velocidad máxima media en intervalos de 10 minutos(hora)
DESCASC
Precipitaciones diarias en mm
DESCASC
Precipitaciones de 00:00 a 06:00 en mm
DESCASC
Precipitaciones de 06:00 a 12:00 en mm
DESCASC
Precipitaciones de 12:00 a 18:00 en mm
DESCASC
Precipitaciones de 18:00 a 24:00 en mm
DESCASC
05-04-2020 18.8 (15:50) 15.3 (03:00) 17 11.39 (15:20) 6.39 (15:20) 0 0 0 0 0
04-04-2020 18.7 (17:10) 9 (03:50) 13.9 9.17 (23:59) 5 (19:40) 0.2 0 0 0.2 0
03-04-2020 19.8 (13:00) 6.7 (08:30) 13.2 5.28 (14:20) 3.33 (14:10) 0 0 0 0 0
02-04-2020 19.6 (17:20) 7.5 (00:00) 13.6 9.72 (13:10) 4.44 (17:20) 0 0 0 0 0
01-04-2020 15.3 (18:30) 5.9 (00:00) 10.6 11.39 (20:50) 5.83 (20:50) 5 0.6 0 2 2.4
31-03-2020 17.1 (15:40) 11.1 (00:00) 14.1 13.33 (17:00) 7.5 (17:10) 15.4 14.2 1.2 0 0
30-03-2020 17.7 (12:50) 7.9 (00:00) 12.8 8.61 (15:10) 5 (15:00) 5.4 0 0 4 1.4
29-03-2020 18.5 (14:40) 7.1 (00:00) 12.8 5.83 (16:40) 3.61 (16:40) 0 0 0 0 0
28-03-2020 18.2 (15:30) 6.6 (00:00) 12.4 6.67 (12:50) 4.44 (13:30) 0 0 0 0 0
27-03-2020 17 (13:40) 6.6 (00:00) 11.8 8.06 (10:00) 4.44 (15:00) 0 0 0 0 0
26-03-2020 22.9 (16:40) 7.2 (00:00) 15 10 (14:50) 5 (14:40) 0 0 0 0 0
25-03-2020 17.6 (13:50) 10.5 (00:00) 14.1 6.94 (19:30) 3.89 (13:00) 0.2 0 0.2 0 0
24-03-2020 21.3 (13:30) 9.5 (00:00) 15.4 8.06 (12:10) 3.89 (11:50) 0 0 0 0 0
23-03-2020 18.4 (17:20) 7.2 (00:00) 12.8 9.17 (17:40) 3.61 (17:40) 0.2 0 0 0 0.2
22-03-2020 16.2 (16:30) 5.3 (02:40) 10.8 5.56 (15:10) 3.06 (15:30) 0.2 0 0.2 0 0
21-03-2020 14.6 (15:20) 4.5 (00:00) 9.6 8.06 (12:10) 4.44 (11:30) 7.8 0 1.4 4 2.4
20-03-2020 17.4 (14:40) 10.3 (00:00) 13.8 8.33 (14:50) 5 (17:50) 15.8 0 0 1.2 14.6
19-03-2020 20.3 (13:20) 10.9 (00:00) 15.6 8.06 (12:20) 4.44 (11:30) 0 0 0 0 0
18-03-2020 23.8 (16:40) 10.6 (00:00) 17.2 10.83 (16:20) 5 (16:30) 6 6 0 0 0
17-03-2020 15.1 (17:50) 7.4 (00:00) 11.3 15.83 (13:20) 8.06 (13:20) 8.6 2.6 0.2 3.8 2
16-03-2020 18.6 (14:50) 7.3 (00:00) 13 12.78 (15:20) 6.11 (00:20) 0 0 0 0 0
15-03-2020 19.6 (14:20) 7.6 (00:00) 13.6 10.83 (23:40) 5.56 (23:10) 0 0 0 0 0
14-03-2020 18 (16:00) 7.5 (00:00) 12.8 5 (12:50) 2.78 (12:50) 0 0 0 0 0
13-03-2020 20.3 (13:40) 9.1 (23:59) 14.7 6.67 (14:00) 4.44 (14:00) 0 0 0 0 0
12-03-2020 18.7 (17:00) 10.1 (00:00) 14.4 4.72 (16:40) 3.06 (16:30) 0 0 0 0 0
11-03-2020 26.4 (13:40) 7.6 (00:00) 17 8.89 (09:50) 5 (09:50) 0 0 0 0 0
10-03-2020 26.1 (13:30) 9 (00:00) 17.6 8.61 (11:40) 5 (11:40) 0 0 0 0 0

Gráficas

Temp. máximas Temp. mínimas Temp. medias Precipitaciones Rachas de viento máximas Velocidades máximas media en intervalos de 10 minutos

Datos horarios

Fecha y hora oficial Temperatura (ºC) Velocidad del viento (km/h) Dirección del viento Racha (km/h) Dirección de racha Precipitación (mm) Presión (hPa) Tendencia (hPa) Humedad (%)
2020-04-08 23:00:00 14.2 3 Oeste 8 Oeste 0 -- -- 84
2020-04-08 22:00:00 16.3 2 Oeste 9 Oeste 0 -- -- 77
2020-04-08 21:00:00 17.7 6 Oeste 10 Sudoeste 0 -- -- 70
2020-04-08 20:00:00 18.7 7 Oeste 13 Oeste 0 -- -- 65
2020-04-08 19:00:00 19.3 4 Sur 11 Sudoeste 0 -- -- 61
2020-04-08 18:00:00 19.3 5 Sudoeste 14 Sudoeste 0 -- -- 65
2020-04-08 17:00:00 19.9 9 Sudoeste 18 Sur 0 -- -- 62
2020-04-08 16:00:00 20.5 10 Sudoeste 18 Sudoeste 0 -- -- 66
2020-04-08 15:00:00 20.7 7 Sur 10 Sudoeste 0 -- -- 63
2020-04-08 14:00:00 19.4 6 Norte 15 Nordeste 0 -- -- 74
2020-04-08 13:00:00 18.6 6 Nordeste 14 Nordeste 0 -- -- 80
2020-04-08 12:00:00 17.5 6 Nordeste 13 Nordeste 0 -- -- 84
2020-04-08 11:00:00 15.9 7 Nordeste 14 Nordeste 0 -- -- 89
2020-04-08 10:00:00 14.6 5 Norte 12 Nordeste 0 -- -- 97
2020-04-08 09:00:00 12.4 4 Norte 8 Nordeste 0 -- -- 99
2020-04-08 08:00:00 12.3 4 Nordeste 6 Nordeste 0 -- -- 99
2020-04-08 07:00:00 12.9 3 Norte 6 Norte 0 -- -- 98
2020-04-08 06:00:00 12.9 3 Noroeste 5 Noroeste 0 -- -- 99
2020-04-08 05:00:00 12.4 3 Norte 5 Norte 0 -- -- 98
2020-04-08 04:00:00 12.7 2 Norte 4 Norte 0 -- -- 98
2020-04-08 03:00:00 13.2 3 Noroeste 5 Noroeste 0 -- -- 99
2020-04-08 02:00:00 13 4 Noroeste 6 Norte 0 -- -- 99
2020-04-08 01:00:00 11.9 3 Noroeste 5 Noroeste 0 -- -- 98
2020-04-08 00:00:00 11.5 0 Calma 4 Sudoeste 0 -- -- 95
2020-04-07 23:00:00 13 0 Calma 5 Sudoeste 0 -- -- 94
2020-04-07 22:00:00 14.9 2 Sur 5 Sudoeste 0 -- -- 91
2020-04-07 21:00:00 17 3 Noroeste 9 Noroeste 0 -- -- 85
2020-04-07 20:00:00 19.1 6 Oeste 18 Oeste 0 -- -- 76
2020-04-07 19:00:00 18.8 11 Oeste 18 Oeste 0 -- -- 75
2020-04-07 18:00:00 18.7 9 Sudoeste 13 Sudoeste 0 -- -- 73
2020-04-07 17:00:00 18.5 7 Sudoeste 14 Sudoeste 0 -- -- 73
2020-04-07 16:00:00 18.1 4 Sudoeste 10 Sudoeste 0 -- -- 76
2020-04-07 15:00:00 18.1 5 Sudoeste 12 Sudeste 0 -- -- 77
2020-04-07 14:00:00 17.5 7 Sudeste 18 Sudeste 0 -- -- 80
2020-04-07 13:00:00 17.2 11 Sudeste 20 Sudeste 0 -- -- 81
2020-04-07 12:00:00 16.7 10 Sudeste 21 Sudeste 0 -- -- 83
2020-04-07 11:00:00 16.5 10 Sudeste 18 Sudeste 0 -- -- 83
2020-04-07 10:00:00 16 10 Sudeste 19 Sudeste 0 -- -- 86
2020-04-07 09:00:00 15.5 10 Sudeste 22 Sudeste 0 -- -- 88
2020-04-07 08:00:00 15.4 9 Sudeste 21 Sudeste 0 -- -- 89
2020-04-07 07:00:00 15.6 12 Sudeste 26 Sudeste 0 -- -- 91
2020-04-07 06:00:00 15.8 13 Sudeste 21 Sudeste 0 -- -- 96
2020-04-07 05:00:00 15.9 8 Sudeste 15 Sudeste 0 -- -- 98
2020-04-07 04:00:00 15.7 8 Sudeste 15 Sur 0 -- -- 99
2020-04-07 03:00:00 15.1 6 Sudeste 13 Sudeste 0 -- -- 100
2020-04-07 02:00:00 11.9 2 Este 4 Sudeste 0 -- -- 99
2020-04-07 01:00:00 11.8 0 Calma 3 Este 0 -- -- 96
2020-04-07 00:00:00 13.7 0 Calma 8 Sudeste 0 -- -- 96
2020-04-06 23:00:00 15.6 5 Sudeste 9 Sudeste 0 -- -- 96
2020-04-06 22:00:00 16.1 4 Sudeste 8 Sudeste 0 -- -- 94
2020-04-06 21:00:00 16.5 4 Sur 9 Sudoeste 0 -- -- 92
2020-04-06 20:00:00 17.4 7 Sudoeste 14 Sudeste 0 -- -- 89
2020-04-06 19:00:00 17.2 9 Sur 23 Sur 0 -- -- 93
2020-04-06 18:00:00 17.3 13 Sudeste 28 Sudeste 0 -- -- 91
2020-04-06 17:00:00 18.4 15 Sudeste 31 Sudeste 0 -- -- 85
2020-04-06 16:00:00 19 17 Sudeste 30 Sudeste 0 -- -- 82
2020-04-06 15:00:00 17.7 15 Sudeste 30 Sur 0 -- -- 89
2020-04-06 14:00:00 16.9 16 Sudeste 32 Sudeste 0 -- -- 91
2020-04-06 13:00:00 16.7 18 Sudeste 32 Sudeste 0 -- -- 94
2020-04-06 12:00:00 16.1 15 Sudeste 32 Sur 0.2 -- -- 96
2020-04-06 11:00:00 16.2 17 Sudeste 30 Sudeste 0 -- -- 94
2020-04-06 10:00:00 16 17 Sudeste 30 Sudeste 0 -- -- 95
2020-04-06 09:00:00 15.9 13 Sudeste 24 Sudeste 0 -- -- 97
2020-04-06 08:00:00 15.7 13 Sudeste 24 Sudeste 0 -- -- 97
2020-04-06 07:00:00 15.8 12 Sudeste 24 Sudeste 0 -- -- 97
2020-04-06 06:00:00 15.7 11 Sur 23 Sur 0 -- -- 96
2020-04-06 05:00:00 15.8 12 Sur 28 Sudeste 0 -- -- 97
2020-04-06 04:00:00 15.7 14 Sudeste 27 Sur 0.2 -- -- 97
2020-04-06 03:00:00 15.5 16 Sudeste 31 Sudeste 2.6 -- -- 98
2020-04-06 02:00:00 15.6 16 Sudeste 33 Sur 0.4 -- -- 98
2020-04-06 01:00:00 15.7 18 Sur 31 Sudeste 2.8 -- -- 96
2020-04-06 00:00:00 16.3 17 Sudeste 31 Sudeste 0 -- -- 91
2020-04-05 23:00:00 16.5 17 Sudeste 30 Sur 0 -- -- 90
2020-04-05 22:00:00 16.5 16 Sur 30 Sur 0 -- -- 91
2020-04-05 21:00:00 16.6 16 Sur 31 Sur 0 -- -- 88
2020-04-05 20:00:00 16.9 17 Sudeste 33 Sur 0 -- -- 86
2020-04-05 19:00:00 17.3 20 Sur 37 Sur 0 -- -- 84
2020-04-05 18:00:00 17.6 17 Sudeste 33 Sur 0 -- -- 83
2020-04-05 17:00:00 17.6 17 Sur 37 Sur 0 -- -- 82
2020-04-05 16:00:00 18.5 21 Sur 41 Sudeste 0 -- -- 77
2020-04-05 15:00:00 18.6 22 Sudeste 41 Sudeste 0 -- -- 77
2020-04-05 14:00:00 18.2 21 Sudeste 36 Sudeste 0 -- -- 78
2020-04-05 13:00:00 17.3 21 Sudeste 38 Sudeste 0 -- -- 80
2020-04-05 12:00:00 17.1 18 Sudeste 35 Sudeste 0 -- -- 81
2020-04-05 11:00:00 16.2 21 Sudeste 36 Sudeste 0 -- -- 83
2020-04-05 10:00:00 16.1 16 Sudeste 32 Sudeste 0 -- -- 83
2020-04-05 09:00:00 15.5 15 Sudeste 30 Sudeste 0 -- -- 86
2020-04-05 08:00:00 15.6 16 Sudeste 32 Sudeste 0 -- -- 85
2020-04-05 07:00:00 15.6 15 Sudeste 28 Sudeste 0 -- -- 86
2020-04-05 06:00:00 15.5 17 Sudeste 32 Sudeste 0 -- -- 87
2020-04-05 05:00:00 15.3 18 Sudeste 31 Sudeste 0 -- -- 87
2020-04-05 04:00:00 15.4 16 Sudeste 28 Sudeste 0 -- -- 88
2020-04-05 03:00:00 15.3 12 Sudeste 30 Sudeste 0 -- -- 86
2020-04-05 02:00:00 15.6 13 Sudeste 27 Sudeste 0 -- -- 83
2020-04-05 01:00:00 15.4 13 Sudeste 32 Sudeste 0 -- -- 83
2020-04-05 00:00:00 15.5 14 Sudeste 33 Sudeste 0 -- -- 83
2020-04-04 23:00:00 15.8 13 Sudeste 30 Sudeste 0 -- -- 84
2020-04-04 22:00:00 16.1 15 Sudeste 31 Sudeste 0 -- -- 80
2020-04-04 21:00:00 16.2 16 Sudeste 31 Sur 0 -- -- 81
2020-04-04 20:00:00 17 17 Sudeste 32 Sudeste 0 -- -- 77
2020-04-04 19:00:00 17.8 17 Sudeste 31 Sudeste 0 -- -- 75
2020-04-04 18:00:00 17.6 15 Sudeste 30 Sudeste 0 -- -- 75
2020-04-04 17:00:00 18.6 10 Sudeste 22 Sudeste 0 -- -- 71
2020-04-04 16:00:00 17.5 12 Sudeste 26 Este 0 -- -- 73
2020-04-04 15:00:00 17 9 Este 26 Este 0 -- -- 74
2020-04-04 14:00:00 16.1 12 Este 28 Este 0.2 -- -- 78
2020-04-04 13:00:00 15 9 Este 26 Este 0 -- -- 81
2020-04-04 12:00:00 14.8 11 Este 23 Este 0 -- -- 73
2020-04-04 11:00:00 13.9 7 Este 15 Este 0 -- -- 74
2020-04-04 10:00:00 12.2 5 Nordeste 13 Nordeste 0 -- -- 82
2020-04-04 09:00:00 11.1 7 Nordeste 14 Nordeste 0 -- -- 86
2020-04-04 08:00:00 10.7 6 Nordeste 15 Nordeste 0 -- -- 87
2020-04-04 07:00:00 10.2 8 Nordeste 14 Nordeste 0 -- -- 90
2020-04-04 06:00:00 9.5 8 Nordeste 15 Nordeste 0 -- -- 92
2020-04-04 05:00:00 9.1 6 Nordeste 12 Nordeste 0 -- -- 91
2020-04-04 04:00:00 9.1 7 Nordeste 14 Nordeste 0 -- -- 88
2020-04-04 03:00:00 10.7 6 Nordeste 13 Este 0 -- -- 81
2020-04-04 02:00:00 9.9 5 Este 11 Nordeste 0 -- -- 88
2020-04-04 01:00:00 10.7 5 Nordeste 18 Este 0 -- -- 91
2020-04-04 00:00:00 11.3 5 Este 12 Este 0 -- -- 97
2020-04-03 23:00:00 11.4 3 Este 5 Este 0 -- -- 90
2020-04-03 22:00:00 14.1 2 Sudeste 8 Sur 0 -- -- 84
2020-04-03 21:00:00 15.6 0 Calma 6 Sudoeste 0 -- -- 78
2020-04-03 20:00:00 18.4 4 Sudoeste 10 Sudoeste 0 -- -- 63
2020-04-03 19:00:00 19.1 6 Sudoeste 14 Sudoeste 0 -- -- 60
2020-04-03 18:00:00 18.8 9 Sudoeste 16 Sudoeste 0 -- -- 64
2020-04-03 17:00:00 19.2 9 Sur 18 Sur 0 -- -- 63
2020-04-03 16:00:00 19 10 Sur 18 Sur 0 -- -- 66
2020-04-03 15:00:00 18.5 10 Sur 19 Sur 0 -- -- 68
2020-04-03 14:00:00 19.1 10 Sur 17 Sur 0 -- -- 64
2020-04-03 13:00:00 19.8 9 Este 19 Sudeste 0 -- -- 51
2020-04-03 12:00:00 17.1 8 Nordeste 15 Nordeste 0 -- -- 65
2020-04-03 11:00:00 14.2 9 Nordeste 17 Nordeste 0 -- -- 76
2020-04-03 10:00:00 10.9 9 Nordeste 15 Norte 0 -- -- 89
2020-04-03 09:00:00 7.3 2 Nordeste 6 Nordeste 0 -- -- 97
2020-04-03 08:00:00 7.5 3 Nordeste 7 Norte 0 -- -- 94
2020-04-03 07:00:00 8.5 6 Norte 13 Norte 0 -- -- 93
2020-04-03 06:00:00 9.7 8 Norte 17 Noroeste 0 -- -- 90
2020-04-03 05:00:00 9.9 9 Noroeste 18 Noroeste 0 -- -- 87
2020-04-03 04:00:00 9.7 9 Noroeste 14 Norte 0 -- -- 85
2020-04-03 03:00:00 10 7 Noroeste 14 Noroeste 0 -- -- 83
2020-04-03 02:00:00 10.7 6 Noroeste 13 Noroeste 0 -- -- 80
2020-04-03 01:00:00 11.7 7 Noroeste 18 Noroeste 0 -- -- 78
2020-04-03 00:00:00 11.1 8 Noroeste 18 Noroeste 0 -- -- 80
2020-04-02 23:00:00 10.7 5 Noroeste 9 Noroeste 0 -- -- 79
2020-04-02 22:00:00 12.2 4 Noroeste 7 Noroeste 0 -- -- 74
2020-04-02 21:00:00 16 4 Noroeste 20 Noroeste 0 -- -- 57
2020-04-02 20:00:00 18.7 8 Norte 28 Noroeste 0 -- -- 47
2020-04-02 19:00:00 19 10 Norte 29 Norte 0 -- -- 47
2020-04-02 18:00:00 19.5 14 Noroeste 33 Norte 0 -- -- 46
2020-04-02 17:00:00 18.6 15 Noroeste 30 Norte 0 -- -- 46
2020-04-02 16:00:00 17.8 13 Noroeste 30 Noroeste 0 -- -- 49
2020-04-02 15:00:00 16.9 11 Noroeste 27 Noroeste 0 -- -- 54
2020-04-02 14:00:00 15.9 13 Noroeste 35 Noroeste 0 -- -- 57
2020-04-02 13:00:00 15.1 14 Noroeste 32 Noroeste 0 -- -- 62
2020-04-02 12:00:00 13.5 13 Norte 28 Noroeste 0 -- -- 71
2020-04-02 11:00:00 12.1 11 Noroeste 24 Noroeste 0 -- -- 80
2020-04-02 10:00:00 9.4 6 Noroeste 14 Norte 0 -- -- 93
2020-04-02 09:00:00 8.2 4 Noroeste 13 Norte 0 -- -- 96
2020-04-02 08:00:00 8 6 Noroeste 15 Noroeste 0 -- -- 96
2020-04-02 07:00:00 8.4 5 Noroeste 9 Norte 0 -- -- 96
2020-04-02 06:00:00 7.8 4 Norte 6 Noroeste 0 -- -- 97
2020-04-02 05:00:00 7.9 4 Noroeste 8 Oeste 0 -- -- 94
2020-04-02 04:00:00 10.2 6 Oeste 15 Oeste 0 -- -- 90
2020-04-02 03:00:00 10.4 5 Oeste 16 Oeste 0 -- -- 89
2020-04-02 02:00:00 11.6 7 Oeste 16 Oeste 0 -- -- 87
2020-04-02 01:00:00 12.7 7 Oeste 22 Sudoeste 0 -- -- 87
2020-04-02 00:00:00 13.1 13 Oeste 28 Sudoeste 0 -- -- 85
2020-04-01 23:00:00 13 16 Sudoeste 32 Oeste 0.6 -- -- 89
2020-04-01 22:00:00 13.5 20 Sudoeste 36 Sudoeste 0 -- -- 84
2020-04-01 21:00:00 12.9 14 Sudoeste 41 Sudoeste 1.6 -- -- 87
2020-04-01 20:00:00 14 10 Sudoeste 31 Oeste 0.2 -- -- 80
2020-04-01 19:00:00 14.7 18 Sudoeste 32 Sudoeste 0 -- -- 70
2020-04-01 18:00:00 14.7 14 Sudoeste 29 Sudoeste 0 -- -- 71
2020-04-01 17:00:00 13.4 12 Sudoeste 30 Sudoeste 0.4 -- -- 81
2020-04-01 16:00:00 14 21 Sudoeste 35 Sur 0.2 -- -- 78
2020-04-01 15:00:00 13.6 18 Sur 34 Sur 0.2 -- -- 79
2020-04-01 14:00:00 14.4 11 Sur 22 Sur 0.2 -- -- 79
2020-04-01 13:00:00 11.9 13 Sudeste 29 Sur 1 -- -- 90
2020-04-01 12:00:00 13.5 13 Sudeste 23 Sur 0 -- -- 75
2020-04-01 11:00:00 13.1 9 Este 18 Este 0 -- -- 77
2020-04-01 10:00:00 10.4 7 Este 14 Este 0 -- -- 90
2020-04-01 09:00:00 6.6 5 Nordeste 9 Nordeste 0 -- -- 100
2020-04-01 08:00:00 6.4 3 Nordeste 5 Nordeste 0 -- -- 98
2020-04-01 07:00:00 7.4 3 Nordeste 5 Norte 0 -- -- 97
2020-04-01 06:00:00 8.1 3 Norte 5 Norte 0 -- -- 97
2020-04-01 05:00:00 8.4 3 Norte 8 Norte 0 -- -- 98
2020-04-01 04:00:00 7.9 4 Norte 6 Norte 0 -- -- 98
2020-04-01 03:00:00 8.4 4 Norte 8 Noroeste 0 -- -- 97
2020-04-01 02:00:00 9.3 3 Noroeste 6 Oeste 0.2 -- -- 94
2020-04-01 01:00:00 10.6 3 Noroeste 12 Norte 0.4 -- -- 91
2020-04-01 00:00:00 11.1 7 Noroeste 17 Noroeste 0 -- -- 81
2020-03-31 23:00:00 11.6 5 Noroeste 10 Noroeste 0 -- -- 78
2020-03-31 22:00:00 11.8 4 Norte 10 Oeste 0 -- -- 84
2020-03-31 21:00:00 14.4 6 Noroeste 27 Sudoeste 0 -- -- 77
2020-03-31 20:00:00 14.6 17 Sudoeste 38 Sudoeste 0 -- -- 74
2020-03-31 19:00:00 15.7 22 Sudoeste 42 Sudoeste 0 -- -- 74
2020-03-31 18:00:00 16.5 25 Sudoeste 46 Sudoeste 0 -- -- 73
2020-03-31 17:00:00 16.9 26 Sudoeste 48 Sudoeste 0 -- -- 71
2020-03-31 16:00:00 16.9 24 Sudoeste 40 Sudoeste 0 -- -- 68
2020-03-31 15:00:00 16.8 22 Sudoeste 37 Sudoeste 0 -- -- 67
2020-03-31 14:00:00 16.8 19 Sudoeste 31 Sudoeste 0 -- -- 77
2020-03-31 13:00:00 16.8 17 Sudoeste 27 Sur 0 -- -- 82
2020-03-31 12:00:00 15.9 15 Sudoeste 30 Sudoeste 1.2 -- -- 84
2020-03-31 11:00:00 15.9 12 Sudoeste 19 Sudoeste 0 -- -- 85
2020-03-31 10:00:00 13.6 4 Sudoeste 10 Sudoeste 0 -- -- 97
2020-03-31 09:00:00 11.1 2 Nordeste 8 Oeste 0 -- -- 97
2020-03-31 08:00:00 12.8 6 Oeste 23 Oeste 0 -- -- 94
2020-03-31 07:00:00 12.5 13 Oeste 26 Sudoeste 0 -- -- 94
2020-03-31 06:00:00 11.5 3 Noroeste 8 Oeste 0 -- -- 98
2020-03-31 05:00:00 11.5 2 Noroeste 11 Oeste 0 -- -- 96
2020-03-31 04:00:00 12.8 6 Oeste 35 Sudeste 5.4 -- -- 95
2020-03-31 03:00:00 12.2 8 Este 22 Este 1.4 -- -- 98
2020-03-31 02:00:00 11.9 12 Este 31 Este 1.2 -- -- 98
2020-03-31 01:00:00 12.1 10 Este 23 Este 6.2 -- -- 97
2020-03-31 00:00:00 12.4 10 Nordeste 22 Este 0 -- -- 96
2020-03-30 23:00:00 12.1 6 Nordeste 17 Este 0 -- -- 96
2020-03-30 22:00:00 12 10 Este 20 Este 0.2 -- -- 96
2020-03-30 21:00:00 12.4 5 Este 18 Este 0 -- -- 96
2020-03-30 20:00:00 13.3 10 Nordeste 19 Este 0.2 -- -- 91
2020-03-30 19:00:00 13.1 4 Nordeste 9 Nordeste 1 -- -- 92
2020-03-30 18:00:00 13.2 3 Este 6 Norte 0.6 -- -- 91
2020-03-30 17:00:00 13 3 Noroeste 17 Oeste 1.6 -- -- 94
2020-03-30 16:00:00 13.8 6 Noroeste 31 Sudoeste 1.6 -- -- 91
2020-03-30 15:00:00 15.9 18 Sudoeste 29 Sur 0.2 -- -- 78
2020-03-30 14:00:00 17 11 Sur 20 Sudoeste 0 -- -- 74
2020-03-30 13:00:00 17.5 13 Sur 20 Sur 0 -- -- 74
2020-03-30 12:00:00 16.5 8 Sudeste 14 Sudeste 0 -- -- 81
2020-03-30 11:00:00 13.2 6 Nordeste 14 Nordeste 0 -- -- 92
2020-03-30 10:00:00 11.5 8 Nordeste 15 Nordeste 0 -- -- 98
2020-03-30 09:00:00 10.5 7 Nordeste 13 Nordeste 0 -- -- 99
2020-03-30 08:00:00 10.1 7 Nordeste 12 Nordeste 0 -- -- 99
2020-03-30 07:00:00 10 5 Nordeste 11 Nordeste 0 -- -- 99
2020-03-30 06:00:00 9.4 6 Nordeste 10 Nordeste 0 -- -- 99
2020-03-30 05:00:00 8.9 5 Norte 9 Nordeste 0 -- -- 98
2020-03-30 04:00:00 9.4 6 Nordeste 9 Nordeste 0 -- -- 99
2020-03-30 03:00:00 8.1 4 Nordeste 6 Nordeste 0 -- -- 97
2020-03-30 02:00:00 8.4 4 Norte 5 Nordeste 0 -- -- 96
2020-03-30 01:00:00 9.1 4 Norte 6 Nordeste 0 -- -- 96
2020-03-30 00:00:00 9.6 4 Nordeste 5 Norte 0 -- -- 94
2020-03-29 23:00:00 10.8 4 Norte 5 Nordeste 0 -- -- 92
2020-03-29 22:00:00 12.7 2 Norte 6 Sudoeste 0 -- -- 89
2020-03-29 21:00:00 15.8 4 Sudoeste 14 Sudoeste 0 -- -- 83
2020-03-29 20:00:00 16.5 8 Sudoeste 14 Sudoeste 0 -- -- 80
2020-03-29 19:00:00 17.2 10 Sudoeste 19 Sudoeste 0 -- -- 73
2020-03-29 18:00:00 17.2 11 Sudoeste 18 Sudoeste 0 -- -- 73
2020-03-29 17:00:00 17.7 12 Sur 21 Sur 0 -- -- 67
2020-03-29 16:00:00 18.3 11 Sur 18 Sur 0 -- -- 63
2020-03-29 15:00:00 18.1 11 Sudeste 21 Sudeste 0 -- -- 60
2020-03-29 14:00:00 18.2 9 Sudeste 17 Sur 0 -- -- 59
2020-03-29 13:00:00 17.9 9 Sudeste 17 Sudeste 0 -- -- 61
2020-03-29 12:00:00 16.7 10 Sudeste 15 Sudeste 0 -- -- 68
2020-03-29 11:00:00 14.2 5 Nordeste 12 Nordeste 0 -- -- 80
2020-03-29 10:00:00 11.7 7 Nordeste 12 Nordeste 0 -- -- 93
2020-03-29 09:00:00 9.1 5 Nordeste 9 Norte 0 -- -- 98
2020-03-29 08:00:00 9.3 5 Nordeste 9 Norte 0 -- -- 96
2020-03-29 07:00:00 9.9 5 Nordeste 9 Nordeste 0 -- -- 97
2020-03-29 06:00:00 9.8 4 Nordeste 8 Nordeste 0 -- -- 97
2020-03-29 05:00:00 9.2 5 Nordeste 9 Norte 0 -- -- 98
2020-03-29 03:00:00 7.4 0 Calma 4 Sudoeste 0 -- -- 94
2020-03-29 01:00:00 9.9 3 Sur 8 Sur 0 -- -- 83
2020-03-29 00:00:00 13.3 4 Sur 12 Sur 0 -- -- 83
2020-03-28 23:00:00 9.3 5 Sur 10 Sudeste 0 -- -- 93
2020-03-28 22:00:00 9.1 3 Sur 5 Sur 0 -- -- 90
2020-03-28 21:00:00 11.5 2 Sur 5 Sur 0 -- -- 86
2020-03-28 20:00:00 15.1 3 Sur 5 Sur 0 -- -- 78
2020-03-28 19:00:00 16.9 3 Oeste 12 Sudoeste 0 -- -- 69
2020-03-28 18:00:00 17.5 8 Sudoeste 17 Sudoeste 0 -- -- 68
2020-03-28 17:00:00 18 10 Sur 22 Sur 0 -- -- 66
2020-03-28 16:00:00 17.8 13 Sur 21 Sur 0 -- -- 63
2020-03-28 15:00:00 17.9 12 Sur 23 Este 0 -- -- 68
2020-03-28 14:00:00 17.7 15 Sudeste 23 Sudeste 0 -- -- 68
2020-03-28 13:00:00 17.3 14 Sudeste 24 Sudeste 0 -- -- 66
2020-03-28 12:00:00 17.5 14 Sudeste 23 Este 0 -- -- 63
2020-03-28 11:00:00 16 9 Este 19 Nordeste 0 -- -- 69
2020-03-28 10:00:00 13.4 11 Nordeste 21 Este 0 -- -- 77
2020-03-28 09:00:00 11.4 10 Nordeste 19 Nordeste 0 -- -- 90
2020-03-28 08:00:00 9.2 6 Nordeste 15 Nordeste 0 -- -- 96
2020-03-28 07:00:00 8.1 9 Nordeste 17 Nordeste 0 -- -- 97
2020-03-28 06:00:00 7.8 8 Nordeste 14 Nordeste 0 -- -- 97
2020-03-28 05:00:00 7.7 6 Nordeste 13 Nordeste 0 -- -- 98
2020-03-28 04:00:00 6.6 4 Nordeste 8 Nordeste 0 -- -- 97
2020-03-28 03:00:00 7.1 2 Norte 10 Norte 0 -- -- 95
2020-03-28 02:00:00 8.2 5 Norte 12 Norte 0 -- -- 94
2020-03-28 01:00:00 8.8 6 Norte 14 Noroeste 0 -- -- 93
2020-03-28 00:00:00 7 6 Noroeste 13 Noroeste 0 -- -- 95
2020-03-27 23:00:00 7.6 4 Norte 6 Norte 0 -- -- 93
2020-03-27 22:00:00 9.3 3 Norte 5 Norte 0 -- -- 89
2020-03-27 21:00:00 12 3 Norte 15 Sudoeste 0 -- -- 83
2020-03-27 20:00:00 14.7 9 Sudoeste 17 Sudoeste 0 -- -- 74
2020-03-27 19:00:00 15.4 11 Sudoeste 23 Sudoeste 0 -- -- 70
2020-03-27 18:00:00 15.9 14 Sudoeste 25 Sudoeste 0 -- -- 68
2020-03-27 17:00:00 16 15 Sudoeste 26 Sudoeste 0 -- -- 62
2020-03-27 16:00:00 16.2 14 Sudoeste 25 Sur 0 -- -- 63
2020-03-27 15:00:00 16.4 16 Sudoeste 24 Sudoeste 0 -- -- 60
2020-03-27 14:00:00 16.3 13 Sur 24 Sur 0 -- -- 57
2020-03-27 13:00:00 16.2 8 Oeste 23 Noroeste 0 -- -- 54
2020-03-27 12:00:00 15 9 Oeste 26 Oeste 0 -- -- 59
2020-03-27 11:00:00 13 8 Noroeste 23 Noroeste 0 -- -- 66
2020-03-27 10:00:00 11.2 13 Noroeste 29 Norte 0 -- -- 76
2020-03-27 09:00:00 9.3 7 Noroeste 14 Noroeste 0 -- -- 92
2020-03-27 08:00:00 6.7 0 Calma 10 Oeste 0 -- -- 97
2020-03-27 07:00:00 6.9 2 Noroeste 10 Oeste 0 -- -- 97
2020-03-27 06:00:00 7 3 Oeste 7 Noroeste 0 -- -- 96
2020-03-27 05:00:00 7.9 2 Oeste 10 Noroeste 0 -- -- 95
2020-03-27 04:00:00 8 3 Noroeste 9 Noroeste 0 -- -- 96
2020-03-27 03:00:00 7.8 4 Noroeste 8 Oeste 0 -- -- 93
2020-03-27 02:00:00 8.7 4 Oeste 8 Noroeste 0 -- -- 93
2020-03-27 01:00:00 10.1 4 Oeste 8 Oeste 0 -- -- 88
2020-03-27 00:00:00 11.7 4 Oeste 16 Noroeste 0 -- -- 84
2020-03-26 23:00:00 12.8 8 Noroeste 18 Oeste 0 -- -- 81
2020-03-26 22:00:00 13.9 9 Oeste 21 Oeste 0 -- -- 76
2020-03-26 21:00:00 15.2 7 Noroeste 21 Oeste 0 -- -- 69
2020-03-26 20:00:00 17 11 Noroeste 29 Oeste 0 -- -- 58
2020-03-26 19:00:00 19.7 16 Noroeste 36 Oeste 0 -- -- 48
2020-03-26 18:00:00 21.4 17 Oeste 33 Oeste 0 -- -- 42
2020-03-26 17:00:00 20.2 18 Sudoeste 31 Oeste 0 -- -- 65
2020-03-26 16:00:00 21.2 14 Sudoeste 34 Oeste 0 -- -- 57
2020-03-26 15:00:00 22.2 15 Noroeste 36 Noroeste 0 -- -- 41
2020-03-26 14:00:00 21.4 15 Noroeste 31 Noroeste 0 -- -- 46
2020-03-26 13:00:00 19.7 17 Noroeste 30 Oeste 0 -- -- 55
2020-03-26 12:00:00 17.9 11 Noroeste 26 Oeste 0 -- -- 58
2020-03-26 11:00:00 15.1 9 Noroeste 23 Noroeste 0 -- -- 73
2020-03-26 10:00:00 12.6 10 Noroeste 23 Noroeste 0 -- -- 86
2020-03-26 09:00:00 10.7 7 Noroeste 21 Norte 0 -- -- 97
2020-03-26 08:00:00 9.1 3 Norte 8 Noroeste 0 -- -- 99
2020-03-26 07:00:00 9 5 Noroeste 13 Oeste 0 -- -- 99
2020-03-26 06:00:00 7.5 2 Oeste 5 Noroeste 0 -- -- 98
2020-03-26 05:00:00 8.7 3 Noroeste 6 Noroeste 0 -- -- 100
2020-03-26 04:00:00 8.1 4 Noroeste 7 Noroeste 0 -- -- 99
2020-03-26 03:00:00 7.9 3 Noroeste 5 Oeste 0 -- -- 98
2020-03-26 02:00:00 8.6 3 Noroeste 5 Norte 0 -- -- 97
2020-03-26 01:00:00 9.8 0 Calma 6 Oeste 0 -- -- 96
2020-03-26 00:00:00 10.5 5 Oeste 8 Oeste 0 -- -- 94
2020-03-25 23:00:00 12.7 3 Oeste 13 Sudoeste 0 -- -- 92
2020-03-25 22:00:00 12.6 4 Sudoeste 8 Sudoeste 0 -- -- 94
2020-03-25 21:00:00 14.3 4 Sudoeste 13 Sudoeste 0 -- -- 88
2020-03-25 20:00:00 15.1 9 Sudoeste 25 Sudoeste 0 -- -- 85
2020-03-25 19:00:00 15.6 13 Sudoeste 23 Sudoeste 0 -- -- 82
2020-03-25 18:00:00 16 10 Sudoeste 18 Sudoeste 0 -- -- 78
2020-03-25 17:00:00 16.5 10 Sudoeste 17 Sudoeste 0 -- -- 76
2020-03-25 16:00:00 17.5 9 Sur 18 Sudeste 0 -- -- 71
2020-03-25 15:00:00 17 10 Sur 20 Sudeste 0 -- -- 75
2020-03-25 14:00:00 17.6 12 Sudeste 22 Sudeste 0 -- -- 72
2020-03-25 13:00:00 16.9 14 Sudeste 22 Sudeste 0 -- -- 76
2020-03-25 12:00:00 16.2 10 Sudeste 18 Sudeste 0 -- -- 81
2020-03-25 11:00:00 14.8 2 Nordeste 7 Nordeste 0.2 -- -- 93
2020-03-25 10:00:00 14.7 4 Nordeste 8 Nordeste 0 -- -- 86
2020-03-25 09:00:00 14 3 Nordeste 8 Nordeste 0 -- -- 90
2020-03-25 08:00:00 13 0 Calma 5 Sudoeste 0 -- -- 95
2020-03-25 07:00:00 13.1 0 Calma 5 Noroeste 0 -- -- 94
2020-03-25 06:00:00 14 0 Calma 12 Sudoeste 0 -- -- 89
2020-03-25 05:00:00 15.1 5 Sur 14 Sudoeste 0 -- -- 85
2020-03-25 04:00:00 15.3 6 Sur 19 Sur 0 -- -- 85
2020-03-25 03:00:00 15.5 10 Sudoeste 18 Sur 0 -- -- 87
2020-03-25 02:00:00 14.7 3 Sur 8 Sur 0 -- -- 91
2020-03-25 01:00:00 14.4 4 Sur 10 Este 0 -- -- 92
2020-03-25 00:00:00 13.8 2 Noroeste 6 Noroeste 0 -- -- 84
2020-03-24 23:00:00 13.6 3 Noroeste 6 Noroeste 0 -- -- 87
2020-03-24 22:00:00 14.4 2 Oeste 6 Sudoeste 0 -- -- 87
2020-03-24 21:00:00 15.5 2 Sudoeste 10 Oeste 0 -- -- 84
2020-03-24 20:00:00 16.2 7 Oeste 12 Oeste 0 -- -- 83
2020-03-24 19:00:00 17 5 Sur 14 Sudeste 0 -- -- 78
2020-03-24 18:00:00 18.4 9 Sudoeste 16 Sudoeste 0 -- -- 71
2020-03-24 17:00:00 19 11 Sudoeste 16 Sudoeste 0 -- -- 66
2020-03-24 16:00:00 18.8 9 Sudoeste 17 Sudoeste 0 -- -- 59
2020-03-24 15:00:00 19.5 9 Sur 21 Sudeste 0 -- -- 58
2020-03-24 14:00:00 20.4 9 Este 25 Este 0 -- -- 49
2020-03-24 13:00:00 20 9 Norte 29 Este 0 -- -- 51
2020-03-24 12:00:00 18 10 Nordeste 27 Este 0 -- -- 56
2020-03-24 11:00:00 15.5 8 Nordeste 20 Nordeste 0 -- -- 65
2020-03-24 10:00:00 15.7 10 Nordeste 26 Nordeste 0 -- -- 63
2020-03-24 09:00:00 13 10 Norte 21 Norte 0 -- -- 73
2020-03-24 08:00:00 10.6 6 Norte 10 Norte 0 -- -- 83
2020-03-24 07:00:00 10.5 6 Norte 18 Norte 0 -- -- 84
2020-03-24 06:00:00 10.1 5 Norte 14 Norte 0 -- -- 88
2020-03-24 05:00:00 9.6 4 Norte 13 Norte 0 -- -- 91
2020-03-24 04:00:00 10.2 6 Nordeste 14 Nordeste 0 -- -- 89
2020-03-24 03:00:00 11.1 9 Nordeste 23 Nordeste 0 -- -- 85
2020-03-24 02:00:00 11.9 12 Nordeste 24 Este 0 -- -- 79
2020-03-24 01:00:00 10.6 7 Nordeste 14 Nordeste 0 -- -- 85
2020-03-24 00:00:00 11.6 8 Nordeste 17 Nordeste 0 -- -- 81
2020-03-23 23:00:00 11.5 6 Nordeste 12 Nordeste 0 -- -- 82
2020-03-23 22:00:00 10.5 5 Nordeste 10 Nordeste 0 -- -- 86
2020-03-23 21:00:00 10.9 5 Norte 10 Norte 0 -- -- 85
2020-03-23 20:00:00 12.1 5 Norte 8 Norte 0 -- -- 85
2020-03-23 19:00:00 14.5 4 Norte 14 Norte 0.2 -- -- 74
2020-03-23 18:00:00 14.2 6 Norte 33 Norte 0 -- -- 79
2020-03-23 17:00:00 17.9 10 Sudoeste 16 Sudoeste 0 -- -- 61
2020-03-23 16:00:00 17.9 10 Sudoeste 17 Sudoeste 0 -- -- 63
2020-03-23 15:00:00 16.7 9 Sur 15 Sudoeste 0 -- -- 68
2020-03-23 14:00:00 16 8 Sur 21 Sudeste 0 -- -- 72
2020-03-23 13:00:00 17.7 10 Este 22 Nordeste 0 -- -- 58
2020-03-23 12:00:00 16.9 9 Nordeste 19 Este 0 -- -- 62
2020-03-23 11:00:00 14.8 6 Nordeste 15 Este 0 -- -- 75
2020-03-23 10:00:00 12.2 4 Nordeste 11 Norte 0 -- -- 86
2020-03-23 09:00:00 10.9 5 Nordeste 10 Norte 0 -- -- 93
2020-03-23 08:00:00 9.2 3 Oeste 10 Nordeste 0 -- -- 98
2020-03-23 07:00:00 8.9 6 Nordeste 10 Nordeste 0 -- -- 98
2020-03-23 06:00:00 8.7 5 Norte 10 Norte 0 -- -- 98
2020-03-23 05:00:00 8.9 6 Norte 13 Norte 0 -- -- 99
2020-03-23 04:00:00 8 5 Nordeste 12 Norte 0 -- -- 99
2020-03-23 03:00:00 7.2 5 Norte 7 Nordeste 0 -- -- 98
2020-03-23 02:00:00 7.5 5 Norte 9 Nordeste 0 -- -- 98
2020-03-23 01:00:00 7.5 4 Norte 6 Noroeste 0 -- -- 97
2020-03-23 00:00:00 8 4 Noroeste 6 Noroeste 0 -- -- 96
2020-03-22 23:00:00 8.8 4 Noroeste 6 Noroeste 0 -- -- 94
2020-03-22 22:00:00 10.3 3 Noroeste 8 Oeste 0 -- -- 90
2020-03-22 21:00:00 13.3 5 Oeste 13 Sudoeste 0 -- -- 80
2020-03-22 20:00:00 14 7 Sudoeste 13 Sudoeste 0 -- -- 75
2020-03-22 19:00:00 15.3 5 Sudoeste 12 Sudoeste 0 -- -- 70
2020-03-22 18:00:00 15.6 6 Sur 12 Sur 0 -- -- 69
2020-03-22 17:00:00 15.2 6 Sur 15 Sudoeste 0 -- -- 70
2020-03-22 16:00:00 15.9 10 Sudoeste 20 Sudoeste 0 -- -- 65
2020-03-22 15:00:00 15.5 10 Sudoeste 16 Sudoeste 0 -- -- 68
2020-03-22 14:00:00 14.7 6 Sudoeste 16 Sudoeste 0 -- -- 71
2020-03-22 13:00:00 14.6 5 Sur 14 Sur 0 -- -- 70
2020-03-22 12:00:00 12.7 0 Calma 14 Nordeste 0 -- -- 79
2020-03-22 11:00:00 11.5 7 Norte 17 Nordeste 0 -- -- 86
2020-03-22 10:00:00 9.9 7 Norte 14 Norte 0 -- -- 97
2020-03-22 09:00:00 8.8 4 Norte 8 Norte 0 -- -- 100
2020-03-22 08:00:00 7.3 3 Norte 6 Nordeste 0.2 -- -- 100
2020-03-22 07:00:00 7.4 4 Norte 7 Noroeste 0 -- -- 100
2020-03-22 06:00:00 6.7 4 Norte 9 Noroeste 0 -- -- 100
2020-03-22 05:00:00 5.7 0 Calma 5 Noroeste 0 -- -- 100
2020-03-22 04:00:00 5.4 3 Noroeste 6 Norte 0 -- -- 100
2020-03-22 03:00:00 5.3 5 Noroeste 7 Noroeste 0 -- -- 100
2020-03-22 02:00:00 5.9 4 Norte 6 Noroeste 0 -- -- 99
2020-03-22 01:00:00 6 4 Noroeste 7 Noroeste 0 -- -- 99
2020-03-22 00:00:00 6.2 3 Noroeste 6 Noroeste 0 -- -- 98
2020-03-21 23:00:00 7.5 2 Norte 5 Norte 0 -- -- 98
2020-03-21 22:00:00 9.1 0 Calma 4 Nordeste 0 -- -- 97
2020-03-21 21:00:00 10.2 3 Nordeste 9 Norte 1.2 -- -- 97
2020-03-21 20:00:00 11.1 5 Noroeste 9 Norte 0.8 -- -- 97
2020-03-21 19:00:00 11.6 3 Nordeste 6 Nordeste 0.4 -- -- 95
2020-03-21 18:00:00 12 0 Calma 7 Nordeste 0 -- -- 90
2020-03-21 17:00:00 11.2 4 Sudeste 9 Nordeste 1.4 -- -- 90
2020-03-21 16:00:00 10.9 5 Norte 27 Norte 2 -- -- 86
2020-03-21 15:00:00 14.4 7 Sur 18 Sudeste 0 -- -- 78
2020-03-21 14:00:00 13.1 10 Sudeste 21 Sudeste 0 -- -- 85
2020-03-21 13:00:00 12 13 Sudeste 29 Sudeste 0.6 -- -- 92
2020-03-21 12:00:00 13 14 Sur 28 Sudeste 0 -- -- 81
2020-03-21 11:00:00 12.8 12 Sur 25 Sur 0 -- -- 84
2020-03-21 10:00:00 11 3 Nordeste 11 Este 0.2 -- -- 100
2020-03-21 09:00:00 8.9 4 Este 10 Sudeste 1.2 -- -- 100
2020-03-21 08:00:00 5.6 4 Nordeste 7 Nordeste 0 -- -- 100
2020-03-21 07:00:00 4.5 3 Nordeste 6 Nordeste 0 -- -- 100
2020-03-21 06:00:00 4.9 4 Norte 5 Norte 0 -- -- 99
2020-03-21 05:00:00 5.5 4 Noroeste 9 Oeste 0 -- -- 99
2020-03-21 04:00:00 6.3 3 Noroeste 6 Noroeste 0 -- -- 98
2020-03-21 03:00:00 7.3 3 Noroeste 6 Noroeste 0 -- -- 98
2020-03-21 02:00:00 8.6 3 Noroeste 6 Oeste 0 -- -- 98
2020-03-21 01:00:00 9.9 4 Noroeste 13 Oeste 0 -- -- 97
2020-03-21 00:00:00 10.3 6 Oeste 13 Oeste 0 -- -- 98
2020-03-20 23:00:00 10.5 3 Sudoeste 20 Noroeste 0.2 -- -- 98
2020-03-20 22:00:00 10.4 9 Norte 19 Noroeste 0.6 -- -- 99
2020-03-20 21:00:00 10.3 9 Noroeste 30 Norte 8 -- -- 99
2020-03-20 20:00:00 10.7 13 Noroeste 26 Norte 5.6 -- -- 95
2020-03-20 19:00:00 15.1 9 Sudeste 25 Sudeste 0.2 -- -- 94
2020-03-20 18:00:00 15.1 16 Sudeste 30 Sudeste 0.8 -- -- 91
2020-03-20 17:00:00 15.5 15 Sudeste 24 Sudeste 0.4 -- -- 89
2020-03-20 16:00:00 16.8 13 Sudeste 28 Sudeste 0 -- -- 80
2020-03-20 15:00:00 16.9 15 Sudeste 30 Sudeste 0 -- -- 80
2020-03-20 14:00:00 16.8 13 Sudeste 28 Sudeste 0 -- -- 78
2020-03-20 13:00:00 16.7 11 Sudeste 25 Sudeste 0 -- -- 77
2020-03-20 12:00:00 16.1 13 Sudeste 24 Sudeste 0 -- -- 77
2020-03-20 11:00:00 15.3 7 Sudeste 16 Sudeste 0 -- -- 78
2020-03-20 10:00:00 14.8 4 Este 12 Este 0 -- -- 79
2020-03-20 09:00:00 14.8 5 Sudeste 12 Sudeste 0 -- -- 84
2020-03-20 08:00:00 14.3 6 Sudeste 16 Sudeste 0 -- -- 79
2020-03-20 07:00:00 13.2 6 Este 14 Este 0 -- -- 81
2020-03-20 06:00:00 13.5 5 Nordeste 8 Nordeste 0 -- -- 90
2020-03-20 05:00:00 14.4 4 Noroeste 9 Norte 0 -- -- 86
2020-03-20 04:00:00 15.2 4 Nordeste 15 Sudeste 0 -- -- 82
2020-03-20 03:00:00 15.6 7 Sudeste 23 Sudeste 0 -- -- 80
2020-03-20 02:00:00 15.7 12 Sudeste 25 Sudeste 0 -- -- 80
2020-03-20 01:00:00 15.6 9 Sur 18 Sur 0 -- -- 83
2020-03-20 00:00:00 15.5 8 Sur 19 Sudoeste 0 -- -- 84
2020-03-19 23:00:00 15.4 10 Sudoeste 21 Sudoeste 0 -- -- 87
2020-03-19 22:00:00 15.2 9 Sudoeste 14 Sudoeste 0 -- -- 87
2020-03-19 21:00:00 14.9 6 Sudoeste 11 Sudoeste 0 -- -- 81
2020-03-19 20:00:00 15.4 5 Oeste 14 Oeste 0 -- -- 78
2020-03-19 19:00:00 16.4 8 Sudoeste 17 Sudoeste 0 -- -- 74
2020-03-19 18:00:00 17.1 9 Sudoeste 16 Sudoeste 0 -- -- 70
2020-03-19 17:00:00 18.2 9 Oeste 16 Oeste 0 -- -- 64
2020-03-19 16:00:00 18.7 6 Sudoeste 15 Sudoeste 0 -- -- 63
2020-03-19 15:00:00 18.3 11 Sudoeste 16 Sudoeste 0 -- -- 65
2020-03-19 14:00:00 19.3 9 Sur 26 Este 0 -- -- 64
2020-03-19 13:00:00 19.8 12 Este 29 Sudeste 0 -- -- 57
2020-03-19 12:00:00 18 12 Nordeste 28 Nordeste 0 -- -- 64
2020-03-19 11:00:00 16.3 14 Nordeste 27 Nordeste 0 -- -- 70
2020-03-19 10:00:00 15.4 8 Nordeste 17 Norte 0 -- -- 76
2020-03-19 09:00:00 13.1 8 Nordeste 19 Nordeste 0 -- -- 84
2020-03-19 08:00:00 12.4 6 Norte 13 Norte 0 -- -- 86
2020-03-19 07:00:00 12.4 7 Norte 14 Norte 0 -- -- 89
2020-03-19 06:00:00 12.6 6 Nordeste 13 Nordeste 0 -- -- 92
2020-03-19 05:00:00 12.7 6 Nordeste 13 Sudeste 0 -- -- 90
2020-03-19 04:00:00 14.3 7 Este 15 Sudeste 0 -- -- 84
2020-03-19 03:00:00 11 4 Nordeste 9 Nordeste 0 -- -- 97
2020-03-19 02:00:00 11.2 2 Noroeste 4 Norte 0 -- -- 95
2020-03-19 01:00:00 11.9 0 Calma 5 Noroeste 0 -- -- 94
2020-03-19 00:00:00 12.7 3 Norte 6 Noroeste 0 -- -- 93
2020-03-18 23:00:00 13.1 4 Noroeste 7 Noroeste 0 -- -- 92
2020-03-18 22:00:00 13.7 4 Noroeste 8 Norte 0 -- -- 89
2020-03-18 21:00:00 14.6 3 Noroeste 5 Oeste 0 -- -- 87
2020-03-18 20:00:00 16.8 2 Oeste 7 Sudoeste 0 -- -- 79
2020-03-18 19:00:00 18.9 4 Sudoeste 12 Sudoeste 0 -- -- 69
2020-03-18 18:00:00 21 6 Sudoeste 13 Sudeste 0 -- -- 59
2020-03-18 17:00:00 23 10 Sudeste 39 Este 0 -- -- 51
2020-03-18 16:00:00 23.3 11 Nordeste 28 Nordeste 0 -- -- 49
2020-03-18 15:00:00 22.2 14 Nordeste 27 Nordeste 0 -- -- 53
2020-03-18 14:00:00 22.5 10 Este 28 Sudeste 0 -- -- 52
2020-03-18 13:00:00 21.1 12 Nordeste 29 Nordeste 0 -- -- 56
2020-03-18 12:00:00 19.3 13 Nordeste 27 Este 0 -- -- 61
2020-03-18 11:00:00 17.7 14 Nordeste 31 Este 0 -- -- 64
2020-03-18 10:00:00 15.5 12 Nordeste 28 Nordeste 0 -- -- 76
2020-03-18 09:00:00 12.9 9 Nordeste 22 Este 0 -- -- 89
2020-03-18 08:00:00 12.3 10 Nordeste 19 Nordeste 0 -- -- 90
2020-03-18 07:00:00 10.7 7 Norte 12 Nordeste 0 -- -- 97
2020-03-18 06:00:00 10.7 5 Norte 9 Oeste 0 -- -- 98
2020-03-18 05:00:00 10.9 4 Norte 9 Norte 0 -- -- 96
2020-03-18 04:00:00 11.3 3 Norte 15 Noroeste 0 -- -- 97
2020-03-18 03:00:00 11 4 Noroeste 13 Noroeste 0.8 -- -- 98
2020-03-18 02:00:00 10.9 4 Noroeste 9 Noroeste 0.6 -- -- 97
2020-03-18 01:00:00 10.7 5 Noroeste 16 Nordeste 4.6 -- -- 96
2020-03-18 00:00:00 11.4 2 Sudeste 9 Noroeste 1.2 -- -- 94
2020-03-17 23:00:00 11.8 4 Noroeste 9 Norte 0.8 -- -- 88
2020-03-17 22:00:00 12.5 6 Norte 23 Nordeste 0 -- -- 76
2020-03-17 21:00:00 13.2 7 Norte 13 Norte 0 -- -- 71
2020-03-17 20:00:00 12.9 5 Norte 11 Nordeste 0 -- -- 79
2020-03-17 19:00:00 14.2 6 Nordeste 22 Nordeste 0 -- -- 71
2020-03-17 18:00:00 14.9 9 Este 20 Este 0 -- -- 68
2020-03-17 17:00:00 14.7 7 Nordeste 22 Nordeste 0 -- -- 81
2020-03-17 16:00:00 12.7 10 Nordeste 20 Nordeste 0 -- -- 87
2020-03-17 15:00:00 10.9 9 Nordeste 27 Nordeste 1 -- -- 93
2020-03-17 14:00:00 9.7 13 Nordeste 57 Sudeste 2 -- -- 95
2020-03-17 13:00:00 9.5 15 Este 34 Este 0.8 -- -- 93
2020-03-17 12:00:00 8.7 13 Nordeste 41 Nordeste 0.2 -- -- 90
2020-03-17 11:00:00 8.5 22 Este 41 Este 0 -- -- 88
2020-03-17 10:00:00 8.6 9 Nordeste 23 Nordeste 0 -- -- 95
2020-03-17 09:00:00 7.6 5 Nordeste 13 Norte 0 -- -- 95
2020-03-17 08:00:00 7.6 6 Nordeste 16 Nordeste 0 -- -- 96
2020-03-17 07:00:00 7.9 4 Norte 9 Nordeste 0 -- -- 97
2020-03-17 06:00:00 8.2 5 Nordeste 10 Nordeste 0 -- -- 98
2020-03-17 05:00:00 8.7 4 Norte 9 Norte 0.2 -- -- 97
2020-03-17 04:00:00 8.8 4 Noroeste 7 Oeste 0 -- -- 97
2020-03-17 03:00:00 8.8 4 Noroeste 10 Norte 1.4 -- -- 96
2020-03-17 02:00:00 8.8 5 Noroeste 18 Noroeste 1 -- -- 93
2020-03-17 01:00:00 9.9 6 Norte 18 Norte 0 -- -- 85
2020-03-17 00:00:00 11.2 6 Nordeste 21 Nordeste 0 -- -- 70
2020-03-16 23:00:00 11.9 5 Noroeste 11 Oeste 0 -- -- 59
2020-03-16 22:00:00 13.1 3 Noroeste 23 Norte 0 -- -- 52
2020-03-16 21:00:00 14.1 5 Norte 14 Noroeste 0 -- -- 45
2020-03-16 20:00:00 15.3 6 Norte 25 Noroeste 0 -- -- 41
2020-03-16 19:00:00 16.8 13 Norte 30 Norte 0 -- -- 33
2020-03-16 18:00:00 17.2 12 Noroeste 37 Norte 0 -- -- 31
2020-03-16 17:00:00 17.7 18 Noroeste 40 Norte 0 -- -- 30
2020-03-16 16:00:00 18.3 18 Noroeste 46 Noroeste 0 -- -- 30
2020-03-16 15:00:00 18.3 19 Noroeste 46 Noroeste 0 -- -- 30
2020-03-16 14:00:00 17.6 18 Noroeste 38 Noroeste 0 -- -- 33
2020-03-16 13:00:00 17.1 15 Noroeste 34 Oeste 0 -- -- 35
2020-03-16 12:00:00 14.7 17 Noroeste 38 Noroeste 0 -- -- 42
2020-03-16 11:00:00 13 18 Norte 41 Noroeste 0 -- -- 49
2020-03-16 10:00:00 11.2 16 Norte 38 Norte 0 -- -- 56
2020-03-16 09:00:00 8.7 10 Noroeste 22 Oeste 0 -- -- 71
2020-03-16 08:00:00 7.3 9 Noroeste 38 Noroeste 0 -- -- 74
2020-03-16 07:00:00 8.8 9 Norte 37 Norte 0 -- -- 65
2020-03-16 06:00:00 8.1 10 Norte 26 Noroeste 0 -- -- 67
2020-03-16 05:00:00 8.5 13 Noroeste 32 Norte 0 -- -- 68
2020-03-16 04:00:00 9 16 Noroeste 40 Noroeste 0 -- -- 65
2020-03-16 03:00:00 10 19 Noroeste 41 Norte 0 -- -- 65
2020-03-16 02:00:00 11.4 21 Norte 43 Norte 0 -- -- 60
2020-03-16 01:00:00 12.4 19 Noroeste 45 Noroeste 0 -- -- 58
2020-03-16 00:00:00 14 14 Noroeste 39 Norte 0 -- -- 67
2020-03-15 23:00:00 16 15 Noroeste 34 Noroeste 0 -- -- 59
2020-03-15 22:00:00 16.2 9 Oeste 27 Sudoeste 0 -- -- 83
2020-03-15 21:00:00 16.3 16 Sudoeste 26 Sudoeste 0 -- -- 79
2020-03-15 20:00:00 16.3 14 Oeste 22 Sudoeste 0 -- -- 83
2020-03-15 19:00:00 16.9 14 Oeste 25 Oeste 0 -- -- 81
2020-03-15 18:00:00 18.6 15 Oeste 23 Oeste 0 -- -- 71
2020-03-15 17:00:00 19.5 14 Sudoeste 22 Sudoeste 0 -- -- 65
2020-03-15 16:00:00 19.1 14 Sudoeste 21 Oeste 0 -- -- 69
2020-03-15 15:00:00 19.1 13 Sudoeste 17 Sudoeste 0 -- -- 66
2020-03-15 14:00:00 19.3 9 Sur 15 Sur 0 -- -- 68
2020-03-15 13:00:00 19 6 Sur 15 Sur 0 -- -- 70
2020-03-15 12:00:00 18.1 8 Sur 14 Sudeste 0 -- -- 74
2020-03-15 11:00:00 17.2 6 Sur 10 Sudeste 0 -- -- 79
2020-03-15 10:00:00 13.7 3 Nordeste 8 Nordeste 0 -- -- 93
2020-03-15 09:00:00 11.2 5 Nordeste 9 Nordeste 0 -- -- 96
2020-03-15 08:00:00 10 4 Nordeste 8 Nordeste 0 -- -- 98
2020-03-15 07:00:00 9.6 4 Norte 6 Norte 0 -- -- 98
2020-03-15 06:00:00 9 3 Nordeste 6 Norte 0 -- -- 97
2020-03-15 05:00:00 8.6 4 Norte 7 Norte 0 -- -- 98
2020-03-15 04:00:00 8 0 Calma 4 Norte 0 -- -- 95
2020-03-15 03:00:00 7.8 4 Norte 6 Norte 0 -- -- 96
2020-03-15 02:00:00 8.2 2 Sur 4 Nordeste 0 -- -- 93
2020-03-15 01:00:00 8.8 3 Nordeste 6 Norte 0 -- -- 95
2020-03-15 00:00:00 9.3 4 Noroeste 6 Noroeste 0 -- -- 95
2020-03-14 23:00:00 9.1 2 Oeste 6 Noroeste 0 -- -- 91
2020-03-14 22:00:00 9.9 3 Noroeste 6 Noroeste 0 -- -- 90
2020-03-14 21:00:00 11.4 4 Norte 5 Norte 0 -- -- 89
2020-03-14 20:00:00 13.9 2 Noroeste 9 Oeste 0 -- -- 83
2020-03-14 19:00:00 16.7 8 Oeste 13 Sudoeste 0 -- -- 74
2020-03-14 18:00:00 17.4 8 Sudoeste 15 Sudoeste 0 -- -- 71
2020-03-14 17:00:00 17.8 9 Sudoeste 14 Sudoeste 0 -- -- 69
2020-03-14 16:00:00 18 8 Sudoeste 14 Sudoeste 0 -- -- 69
2020-03-14 15:00:00 17.6 8 Sur 15 Sur 0 -- -- 70
2020-03-14 14:00:00 17.4 9 Sudeste 15 Sur 0 -- -- 72
2020-03-14 13:00:00 15.6 9 Sudeste 18 Sudeste 0 -- -- 82
2020-03-14 12:00:00 15.7 8 Sudeste 17 Sudeste 0 -- -- 86
2020-03-14 11:00:00 15.1 6 Sudeste 10 Sudeste 0 -- -- 93
2020-03-14 10:00:00 13.6 2 Sudeste 5 Nordeste 0 -- -- 100
2020-03-14 09:00:00 11.9 0 Calma 4 Este 0 -- -- 100
2020-03-14 08:00:00 11.1 0 Calma 4 Norte 0 -- -- 100
2020-03-14 07:00:00 10.2 2 Noroeste 4 Noroeste 0 -- -- 100
2020-03-14 06:00:00 8.6 3 Norte 9 Norte 0 -- -- 100
2020-03-14 05:00:00 7.9 4 Norte 8 Norte 0 -- -- 98
2020-03-14 04:00:00 9 0 Calma 10 Noroeste 0 -- -- 98
2020-03-14 03:00:00 8.3 5 Noroeste 8 Noroeste 0 -- -- 99
2020-03-14 02:00:00 7.6 3 Oeste 7 Oeste 0 -- -- 96
2020-03-14 01:00:00 8.2 0 Calma 3 Sur 0 -- -- 94
2020-03-14 00:00:00 9.1 2 Oeste 4 Oeste 0 -- -- 93
2020-03-13 23:00:00 10.8 0 Calma 3 Noroeste 0 -- -- 92
2020-03-13 22:00:00 12.9 3 Oeste 9 Sudoeste 0 -- -- 92
2020-03-13 21:00:00 14.5 5 Oeste 15 Sudoeste 0 -- -- 93
2020-03-13 20:00:00 15.1 9 Sudoeste 18 Sudoeste 0 -- -- 92
2020-03-13 19:00:00 15.9 11 Sudoeste 18 Sudoeste 0 -- -- 86
2020-03-13 18:00:00 16.8 11 Sudoeste 17 Sudoeste 0 -- -- 81
2020-03-13 17:00:00 17.1 12 Sudoeste 21 Sudoeste 0 -- -- 74
2020-03-13 16:00:00 17.6 12 Sur 22 Sudoeste 0 -- -- 74
2020-03-13 15:00:00 17.7 12 Sur 24 Sur 0 -- -- 71
2020-03-13 14:00:00 18.7 16 Sur 24 Sur 0 -- -- 68
2020-03-13 13:00:00 19.5 8 Noroeste 22 Noroeste 0 -- -- 63
2020-03-13 12:00:00 18.6 6 Noroeste 15 Norte 0 -- -- 65
2020-03-13 11:00:00 16.2 4 Noroeste 13 Noroeste 0 -- -- 72
2020-03-13 10:00:00 13.6 6 Norte 14 Oeste 0 -- -- 82
2020-03-13 09:00:00 11.9 4 Noroeste 8 Noroeste 0 -- -- 90
2020-03-13 08:00:00 12 3 Noroeste 12 Noroeste 0 -- -- 94
2020-03-13 07:00:00 12.5 4 Noroeste 10 Noroeste 0 -- -- 92
2020-03-13 06:00:00 12.8 6 Noroeste 13 Oeste 0 -- -- 91
2020-03-13 05:00:00 13.5 0 Calma 3 Nordeste 0 -- -- 98
2020-03-13 04:00:00 13.5 0 Calma 3 Este 0 -- -- 97
2020-03-13 03:00:00 13.7 0 Calma 7 Norte 0 -- -- 96
2020-03-13 02:00:00 13.8 3 Noroeste 8 Oeste 0 -- -- 95
2020-03-13 01:00:00 13.9 0 Calma 10 Oeste 0 -- -- 94
2020-03-13 00:00:00 14.2 6 Oeste 13 Sudoeste 0 -- -- 93
2020-03-12 23:00:00 14.7 5 Sudoeste 12 Sudoeste 0 -- -- 92
2020-03-12 22:00:00 13.4 2 Sudoeste 5 Sudoeste 0 -- -- 94
2020-03-12 21:00:00 12.6 0 Calma 5 Sudeste 0 -- -- 90
2020-03-12 20:00:00 15.6 0 Calma 7 Sudoeste 0 -- -- 87
2020-03-12 19:00:00 17.3 4 Sudoeste 11 Sur 0 -- -- 83
2020-03-12 18:00:00 18.4 6 Sur 12 Sur 0 -- -- 77
2020-03-12 17:00:00 18.7 6 Sur 17 Sudoeste 0 -- -- 75
2020-03-12 16:00:00 17.9 9 Sur 15 Sur 0 -- -- 76
2020-03-12 15:00:00 18.1 8 Sur 15 Sur 0 -- -- 77
2020-03-12 14:00:00 17.5 6 Sur 14 Sur 0 -- -- 78
2020-03-12 13:00:00 16.9 5 Sur 16 Sudeste 0 -- -- 82
2020-03-12 12:00:00 16.8 8 Sudeste 16 Sudeste 0 -- -- 82
2020-03-12 11:00:00 16.6 6 Sudeste 12 Sudeste 0 -- -- 81
2020-03-12 10:00:00 15.9 5 Sudeste 10 Sudeste 0 -- -- 86
2020-03-12 09:00:00 15.2 4 Sudeste 10 Sur 0 -- -- 90
2020-03-12 08:00:00 14.8 5 Sur 11 Sur 0 -- -- 90
2020-03-12 07:00:00 14.4 4 Sudeste 15 Sudeste 0 -- -- 91
2020-03-12 06:00:00 14.5 8 Sudeste 14 Sur 0 -- -- 94
2020-03-12 05:00:00 14.3 6 Sur 14 Sur 0 -- -- 98
2020-03-12 04:00:00 10.4 5 Este 11 Sudeste 0 -- -- 91
2020-03-12 03:00:00 10.1 4 Este 9 Nordeste 0 -- -- 85
2020-03-12 02:00:00 10.5 5 Nordeste 9 Nordeste 0 -- -- 83
2020-03-12 01:00:00 10.5 6 Nordeste 8 Nordeste 0 -- -- 84
2020-03-12 00:00:00 10.7 5 Norte 7 Norte 0 -- -- 81
2020-03-11 23:00:00 11.7 3 Noroeste 7 Oeste 0 -- -- 78
2020-03-11 22:00:00 13.3 3 Sur 7 Sudoeste 0 -- -- 75
2020-03-11 21:00:00 14.7 0 Calma 5 Este 0 -- -- 73
2020-03-11 20:00:00 17.5 3 Noroeste 8 Sudoeste 0 -- -- 65
2020-03-11 19:00:00 21.2 3 Oeste 7 Oeste 0 -- -- 54
2020-03-11 18:00:00 21.9 4 Sur 13 Oeste 0 -- -- 50
2020-03-11 17:00:00 19.9 10 Sudoeste 17 Sudoeste 0 -- -- 59
2020-03-11 16:00:00 21.3 7 Sudoeste 12 Sudoeste 0 -- -- 55
2020-03-11 15:00:00 19 9 Sudoeste 22 Sudoeste 0 -- -- 63
2020-03-11 14:00:00 23 10 Sudoeste 22 Sudoeste 0 -- -- 51
2020-03-11 13:00:00 24.4 9 Nordeste 29 Este 0 -- -- 40
2020-03-11 12:00:00 22.8 6 Sur 23 Nordeste 0 -- -- 51
2020-03-11 11:00:00 21.7 15 Nordeste 32 Nordeste 0 -- -- 46
2020-03-11 10:00:00 17.6 17 Nordeste 32 Nordeste 0 -- -- 55
2020-03-11 09:00:00 14.3 14 Nordeste 29 Nordeste 0 -- -- 67
2020-03-11 08:00:00 10.4 10 Norte 17 Norte 0 -- -- 82
2020-03-11 07:00:00 9.6 10 Nordeste 17 Nordeste 0 -- -- 86
2020-03-11 06:00:00 8.4 6 Norte 10 Nordeste 0 -- -- 88
2020-03-11 05:00:00 7.6 5 Norte 8 Norte 0 -- -- 88
2020-03-11 04:00:00 7.8 5 Noroeste 9 Nordeste 0 -- -- 88
2020-03-11 03:00:00 7.9 6 Norte 8 Norte 0 -- -- 85
2020-03-11 02:00:00 8.4 3 Norte 5 Noroeste 0 -- -- 83
2020-03-11 01:00:00 9 2 Nordeste 6 Sudoeste 0 -- -- 77
2020-03-11 00:00:00 9.5 4 Oeste 5 Sudoeste 0 -- -- 75
2020-03-10 23:00:00 10.6 2 Noroeste 4 Sudoeste 0 -- -- 71
2020-03-10 22:00:00 11.8 0 Calma 7 Sur 0 -- -- 66
2020-03-10 21:00:00 14 3 Oeste 6 Norte 0 -- -- 60
2020-03-10 20:00:00 18.5 0 Calma 5 Oeste 0 -- -- 47
2020-03-10 19:00:00 22.5 3 Oeste 11 Oeste 0 -- -- 38
2020-03-10 18:00:00 23 7 Sudoeste 14 Sudoeste 0 -- -- 36
2020-03-10 17:00:00 23.8 8 Sudoeste 13 Sudeste 0 -- -- 37
2020-03-10 16:00:00 23.5 6 Sur 13 Sur 0 -- -- 36
2020-03-10 15:00:00 22.6 9 Sudoeste 16 Sur 0 -- -- 40
2020-03-10 14:00:00 24.1 9 Sur 27 Este 0 -- -- 37
2020-03-10 13:00:00 25.4 14 Nordeste 29 Nordeste 0 -- -- 29
2020-03-10 12:00:00 23.1 14 Nordeste 31 Este 0 -- -- 32
2020-03-10 11:00:00 20.1 9 Nordeste 22 Nordeste 0 -- -- 40
2020-03-10 10:00:00 16.8 6 Nordeste 16 Norte 0 -- -- 49
2020-03-10 09:00:00 11.7 6 Norte 11 Norte 0 -- -- 73
2020-03-10 08:00:00 9.3 6 Norte 15 Norte 0 -- -- 82
2020-03-10 07:00:00 9.5 7 Norte 15 Norte 0 -- -- 82
2020-03-10 06:00:00 10.9 8 Norte 19 Noroeste 0 -- -- 76
2020-03-10 05:00:00 11.2 11 Norte 23 Noroeste 0 -- -- 75
2020-03-10 04:00:00 11.4 9 Noroeste 19 Noroeste 0 -- -- 73
2020-03-10 03:00:00 11.5 6 Noroeste 13 Noroeste 0 -- -- 69
2020-03-10 02:00:00 12.2 5 Noroeste 10 Noroeste 0 -- -- 64
2020-03-10 01:00:00 12.7 4 Noroeste 11 Noroeste 0 -- -- 60
2020-03-10 00:00:00 13.5 5 Noroeste 11 Noroeste 0 -- -- 56